HDA weather

Corporativo Santa Fe Heliport
Cuajimalpa, Jalisco, Mexico

Public forecast

Using degrees Celsius for public forecast. Weather courtesy of forecast.io.

METAR (pilot weather report)

Closest report is Licenciado Benito Juarez International Airport, 12.6 nm (23.3 km) ENE. Retrieved 2019/08/21 21:40 UTC (30 minutes ago):

MMMX 212140Z 09011KT 8SM BKN020TCU BKN080 OVC200 22/09 A3027 NOSIG RMK 8/237 HZY

TAF (pilot weather forecast)

Closest forecast is Licenciado Benito Juarez International Airport, 12.6 nm (23.3 km) ENE. Retrieved 2019/08/21 18:42 UTC (3 hours ago):

TAF MMMX 211640Z 2118/2224 13010KT 6SM HZ SCT020 TX25/2121Z TN14/2212Z FM212000 08012KT 6SM HZ BKN025 TEMPO 2122/2202 5SM TSRA BKN020CB FM220200 06010KT 6SM HZ BKN020 BKN090 TEMPO 2202/2204 5SM -RA BKN020CB FM220400 06005KT 6SM HZ SCT020 SCT100 BKN200 FM221800 16010KT P6SM BKN030